sensor_id;sensor_type;location;lat;lon;timestamp;P1;durP1;ratioP1;P2;durP2;ratioP2
42194;SDS011;27863;49.440;11.102;2023-02-11T00:02:18;32.73;;;21.80;;
42194;SDS011;27863;49.440;11.102;2023-02-11T00:05:19;28.40;;;21.93;;
42194;SDS011;27863;49.440;11.102;2023-02-11T00:08:19;31.37;;;22.17;;
42194;SDS011;27863;49.440;11.102;2023-02-11T00:11:20;29.13;;;22.83;;
42194;SDS011;27863;49.440;11.102;2023-02-11T00:14:24;25.27;;;21.00;;
42194;SDS011;27863;49.440;11.102;2023-02-11T00:17:25;34.20;;;23.80;;
42194;SDS011;27863;49.440;11.102;2023-02-11T00:20:25;37.03;;;21.80;;
42194;SDS011;27863;49.440;11.102;2023-02-11T00:23:26;27.27;;;21.00;;
42194;SDS011;27863;49.440;11.102;2023-02-11T00:26:28;36.57;;;25.00;;
42194;SDS011;27863;49.440;11.102;2023-02-11T00:29:30;31.90;;;25.60;;
42194;SDS011;27863;49.440;11.102;2023-02-11T00:32:31;45.27;;;25.80;;
42194;SDS011;27863;49.440;11.102;2023-02-11T00:35:35;32.53;;;23.77;;
42194;SDS011;27863;49.440;11.102;2023-02-11T00:38:36;29.80;;;22.73;;
42194;SDS011;27863;49.440;11.102;2023-02-11T00:41:40;53.00;;;27.13;;
42194;SDS011;27863;49.440;11.102;2023-02-11T00:44:41;54.50;;;26.57;;
42194;SDS011;27863;49.440;11.102;2023-02-11T00:47:42;37.63;;;23.40;;
42194;SDS011;27863;49.440;11.102;2023-02-11T00:50:43;43.03;;;23.77;;
42194;SDS011;27863;49.440;11.102;2023-02-11T00:53:44;43.93;;;24.00;;
42194;SDS011;27863;49.440;11.102;2023-02-11T00:56:44;37.30;;;22.33;;
42194;SDS011;27863;49.440;11.102;2023-02-11T00:59:45;37.53;;;25.67;;
42194;SDS011;27863;49.440;11.102;2023-02-11T01:02:45;49.50;;;25.87;;
42194;SDS011;27863;49.440;11.102;2023-02-11T01:05:46;34.70;;;21.53;;
42194;SDS011;27863;49.440;11.102;2023-02-11T01:08:46;35.00;;;21.20;;
42194;SDS011;27863;49.440;11.102;2023-02-11T01:11:47;34.83;;;22.13;;
42194;SDS011;27863;49.440;11.102;2023-02-11T01:14:47;40.70;;;22.50;;
42194;SDS011;27863;49.440;11.102;2023-02-11T01:17:48;29.53;;;21.10;;
42194;SDS011;27863;49.440;11.102;2023-02-11T01:20:52;33.03;;;21.97;;
42194;SDS011;27863;49.440;11.102;2023-02-11T01:23:53;33.77;;;21.63;;
42194;SDS011;27863;49.440;11.102;2023-02-11T01:26:54;32.80;;;21.13;;
42194;SDS011;27863;49.440;11.102;2023-02-11T01:29:56;37.83;;;22.30;;
42194;SDS011;27863;49.440;11.102;2023-02-11T01:32:58;30.17;;;21.17;;
42194;SDS011;27863;49.440;11.102;2023-02-11T01:35:59;34.67;;;22.30;;
42194;SDS011;27863;49.440;11.102;2023-02-11T01:39:01;28.77;;;22.03;;
42194;SDS011;27863;49.440;11.102;2023-02-11T01:42:02;37.23;;;23.40;;
42194;SDS011;27863;49.440;11.102;2023-02-11T01:52:17;28.43;;;21.10;;
42194;SDS011;27863;49.440;11.102;2023-02-11T01:55:21;26.90;;;20.07;;
42194;SDS011;27863;49.440;11.102;2023-02-11T01:58:41;31.87;;;21.00;;
42194;SDS011;27863;49.440;11.102;2023-02-11T02:01:45;32.00;;;21.67;;
42194;SDS011;27863;49.440;11.102;2023-02-11T02:04:52;26.37;;;20.63;;
42194;SDS011;27863;49.440;11.102;2023-02-11T02:08:05;24.70;;;19.07;;
42194;SDS011;27863;49.440;11.102;2023-02-11T02:11:09;35.77;;;21.53;;
42194;SDS011;27863;49.440;11.102;2023-02-11T02:14:10;29.07;;;21.60;;
42194;SDS011;27863;49.440;11.102;2023-02-11T02:17:23;30.60;;;20.30;;
42194;SDS011;27863;49.440;11.102;2023-02-11T02:33:44;25.30;;;19.97;;
42194;SDS011;27863;49.440;11.102;2023-02-11T02:37:14;29.00;;;20.63;;
42194;SDS011;27863;49.440;11.102;2023-02-11T02:41:02;27.10;;;19.03;;
42194;SDS011;27863;49.440;11.102;2023-02-11T02:43:46;24.50;;;18.93;;
42194;SDS011;27863;49.440;11.102;2023-02-11T02:46:48;27.53;;;20.47;;
42194;SDS011;27863;49.440;11.102;2023-02-11T02:49:48;28.03;;;20.13;;
42194;SDS011;27863;49.440;11.102;2023-02-11T02:56:08;31.57;;;20.53;;
42194;SDS011;27863;49.440;11.102;2023-02-11T03:06:10;24.30;;;18.93;;
42194;SDS011;27863;49.440;11.102;2023-02-11T03:09:18;23.63;;;18.43;;
42194;SDS011;27863;49.440;11.102;2023-02-11T03:12:23;28.53;;;20.67;;
42194;SDS011;27863;49.440;11.102;2023-02-11T03:15:26;26.43;;;20.47;;
42194;SDS011;27863;49.440;11.102;2023-02-11T03:18:27;28.10;;;20.07;;
42194;SDS011;27863;49.440;11.102;2023-02-11T03:21:29;29.80;;;20.47;;
42194;SDS011;27863;49.440;11.102;2023-02-11T03:24:36;22.93;;;18.87;;
42194;SDS011;27863;49.440;11.102;2023-02-11T03:27:39;26.13;;;19.57;;
42194;SDS011;27863;49.440;11.102;2023-02-11T03:30:47;30.07;;;21.60;;
42194;SDS011;27863;49.440;11.102;2023-02-11T03:33:55;23.23;;;19.00;;
42194;SDS011;27863;49.440;11.102;2023-02-11T03:40:43;35.97;;;20.77;;
42194;SDS011;27863;49.440;11.102;2023-02-11T03:43:48;29.83;;;20.30;;
42194;SDS011;27863;49.440;11.102;2023-02-11T03:46:53;26.63;;;19.90;;
42194;SDS011;27863;49.440;11.102;2023-02-11T03:49:54;27.90;;;20.30;;
42194;SDS011;27863;49.440;11.102;2023-02-11T03:52:55;26.47;;;20.63;;
42194;SDS011;27863;49.440;11.102;2023-02-11T03:55:56;27.17;;;19.87;;
42194;SDS011;27863;49.440;11.102;2023-02-11T03:58:59;25.30;;;20.40;;
42194;SDS011;27863;49.440;11.102;2023-02-11T04:02:00;32.87;;;20.63;;
42194;SDS011;27863;49.440;11.102;2023-02-11T04:05:01;22.17;;;18.87;;
42194;SDS011;27863;49.440;11.102;2023-02-11T04:08:02;22.03;;;18.53;;
42194;SDS011;27863;49.440;11.102;2023-02-11T04:11:02;37.23;;;21.17;;
42194;SDS011;27863;49.440;11.102;2023-02-11T04:14:03;29.53;;;19.70;;
42194;SDS011;27863;49.440;11.102;2023-02-11T04:17:05;20.97;;;18.73;;
42194;SDS011;27863;49.440;11.102;2023-02-11T04:20:06;29.80;;;20.67;;
42194;SDS011;27863;49.440;11.102;2023-02-11T04:23:07;25.40;;;18.30;;
42194;SDS011;27863;49.440;11.102;2023-02-11T04:26:09;25.93;;;19.50;;
42194;SDS011;27863;49.440;11.102;2023-02-11T04:29:10;21.57;;;19.27;;
42194;SDS011;27863;49.440;11.102;2023-02-11T04:32:12;21.77;;;19.20;;
42194;SDS011;27863;49.440;11.102;2023-02-11T04:35:12;25.00;;;19.57;;
42194;SDS011;27863;49.440;11.102;2023-02-11T04:38:14;26.63;;;20.47;;
42194;SDS011;27863;49.440;11.102;2023-02-11T04:41:15;26.47;;;18.37;;
42194;SDS011;27863;49.440;11.102;2023-02-11T04:44:16;28.17;;;20.10;;
42194;SDS011;27863;49.440;11.102;2023-02-11T04:47:16;27.10;;;17.47;;
42194;SDS011;27863;49.440;11.102;2023-02-11T04:50:17;22.93;;;17.57;;
42194;SDS011;27863;49.440;11.102;2023-02-11T04:53:17;27.43;;;17.93;;
42194;SDS011;27863;49.440;11.102;2023-02-11T04:56:18;21.20;;;18.83;;
42194;SDS011;27863;49.440;11.102;2023-02-11T04:59:18;21.27;;;16.60;;
42194;SDS011;27863;49.440;11.102;2023-02-11T05:02:19;20.10;;;16.93;;
42194;SDS011;27863;49.440;11.102;2023-02-11T05:05:20;20.20;;;17.37;;
42194;SDS011;27863;49.440;11.102;2023-02-11T05:08:20;21.03;;;18.17;;
42194;SDS011;27863;49.440;11.102;2023-02-11T05:11:21;24.80;;;17.17;;
42194;SDS011;27863;49.440;11.102;2023-02-11T05:14:23;23.23;;;17.03;;
42194;SDS011;27863;49.440;11.102;2023-02-11T05:17:24;23.37;;;17.07;;
42194;SDS011;27863;49.440;11.102;2023-02-11T05:20:24;19.70;;;16.47;;
42194;SDS011;27863;49.440;11.102;2023-02-11T05:23:25;25.83;;;17.63;;
42194;SDS011;27863;49.440;11.102;2023-02-11T05:26:26;18.97;;;15.90;;
42194;SDS011;27863;49.440;11.102;2023-02-11T05:29:27;19.20;;;15.97;;
42194;SDS011;27863;49.440;11.102;2023-02-11T05:32:28;20.67;;;17.33;;
42194;SDS011;27863;49.440;11.102;2023-02-11T05:35:28;18.80;;;16.90;;
42194;SDS011;27863;49.440;11.102;2023-02-11T05:38:30;27.30;;;17.50;;
42194;SDS011;27863;49.440;11.102;2023-02-11T05:41:31;23.87;;;17.73;;
42194;SDS011;27863;49.440;11.102;2023-02-11T05:44:31;16.63;;;15.07;;
42194;SDS011;27863;49.440;11.102;2023-02-11T05:47:32;23.40;;;16.27;;
42194;SDS011;27863;49.440;11.102;2023-02-11T05:50:34;22.10;;;16.30;;
42194;SDS011;27863;49.440;11.102;2023-02-11T05:53:36;18.17;;;15.40;;
42194;SDS011;27863;49.440;11.102;2023-02-11T05:56:37;22.47;;;16.57;;
42194;SDS011;27863;49.440;11.102;2023-02-11T05:59:37;16.67;;;14.87;;
42194;SDS011;27863;49.440;11.102;2023-02-11T06:02:38;22.33;;;16.43;;
42194;SDS011;27863;49.440;11.102;2023-02-11T06:05:41;18.33;;;15.93;;
42194;SDS011;27863;49.440;11.102;2023-02-11T06:08:42;25.00;;;17.17;;
42194;SDS011;27863;49.440;11.102;2023-02-11T06:11:43;18.43;;;16.10;;
42194;SDS011;27863;49.440;11.102;2023-02-11T06:14:44;18.27;;;16.50;;
42194;SDS011;27863;49.440;11.102;2023-02-11T06:17:44;17.47;;;15.30;;
42194;SDS011;27863;49.440;11.102;2023-02-11T06:20:45;19.00;;;16.03;;
42194;SDS011;27863;49.440;11.102;2023-02-11T06:23:45;26.87;;;17.07;;
42194;SDS011;27863;49.440;11.102;2023-02-11T06:26:46;18.53;;;15.27;;
42194;SDS011;27863;49.440;11.102;2023-02-11T06:29:46;18.93;;;14.80;;
42194;SDS011;27863;49.440;11.102;2023-02-11T06:32:47;19.83;;;14.73;;
42194;SDS011;27863;49.440;11.102;2023-02-11T06:35:48;20.13;;;16.50;;
42194;SDS011;27863;49.440;11.102;2023-02-11T06:38:48;21.07;;;15.93;;
42194;SDS011;27863;49.440;11.102;2023-02-11T06:41:50;15.87;;;14.10;;
42194;SDS011;27863;49.440;11.102;2023-02-11T06:44:50;19.83;;;15.30;;
42194;SDS011;27863;49.440;11.102;2023-02-11T06:47:51;17.50;;;14.87;;
42194;SDS011;27863;49.440;11.102;2023-02-11T06:50:52;18.53;;;15.97;;
42194;SDS011;27863;49.440;11.102;2023-02-11T06:53:52;20.60;;;15.80;;
42194;SDS011;27863;49.440;11.102;2023-02-11T06:56:53;21.03;;;15.53;;
42194;SDS011;27863;49.440;11.102;2023-02-11T06:59:55;18.83;;;15.03;;
42194;SDS011;27863;49.440;11.102;2023-02-11T07:02:56;14.80;;;13.30;;
42194;SDS011;27863;49.440;11.102;2023-02-11T07:05:57;15.40;;;13.90;;
42194;SDS011;27863;49.440;11.102;2023-02-11T07:08:58;20.53;;;15.13;;
42194;SDS011;27863;49.440;11.102;2023-02-11T07:11:58;16.67;;;14.87;;
42194;SDS011;27863;49.440;11.102;2023-02-11T07:14:59;18.70;;;13.77;;
42194;SDS011;27863;49.440;11.102;2023-02-11T07:17:59;16.83;;;13.43;;
42194;SDS011;27863;49.440;11.102;2023-02-11T07:21:04;18.53;;;15.10;;
42194;SDS011;27863;49.440;11.102;2023-02-11T07:24:06;16.33;;;14.67;;
42194;SDS011;27863;49.440;11.102;2023-02-11T07:27:07;20.53;;;16.20;;
42194;SDS011;27863;49.440;11.102;2023-02-11T07:30:08;15.07;;;13.67;;
42194;SDS011;27863;49.440;11.102;2023-02-11T07:33:09;14.90;;;13.30;;
42194;SDS011;27863;49.440;11.102;2023-02-11T07:36:11;16.27;;;12.87;;
42194;SDS011;27863;49.440;11.102;2023-02-11T07:39:12;13.70;;;12.33;;
42194;SDS011;27863;49.440;11.102;2023-02-11T07:42:13;14.10;;;12.60;;
42194;SDS011;27863;49.440;11.102;2023-02-11T07:45:14;13.33;;;12.03;;
42194;SDS011;27863;49.440;11.102;2023-02-11T07:48:15;14.00;;;12.70;;
42194;SDS011;27863;49.440;11.102;2023-02-11T07:54:20;13.03;;;11.83;;
42194;SDS011;27863;49.440;11.102;2023-02-11T07:57:21;13.87;;;12.67;;
42194;SDS011;27863;49.440;11.102;2023-02-11T08:00:22;14.10;;;12.70;;
42194;SDS011;27863;49.440;11.102;2023-02-11T08:03:22;15.00;;;13.60;;
42194;SDS011;27863;49.440;11.102;2023-02-11T08:06:24;13.40;;;12.10;;
42194;SDS011;27863;49.440;11.102;2023-02-11T08:09:27;13.60;;;12.30;;
42194;SDS011;27863;49.440;11.102;2023-02-11T08:12:28;12.60;;;11.27;;
42194;SDS011;27863;49.440;11.102;2023-02-11T08:15:29;13.13;;;11.93;;
42194;SDS011;27863;49.440;11.102;2023-02-11T08:18:30;14.57;;;13.07;;
42194;SDS011;27863;49.440;11.102;2023-02-11T08:21:31;14.13;;;12.67;;
42194;SDS011;27863;49.440;11.102;2023-02-11T08:24:31;16.73;;;14.93;;
42194;SDS011;27863;49.440;11.102;2023-02-11T08:27:32;16.07;;;14.57;;
42194;SDS011;27863;49.440;11.102;2023-02-11T08:30:33;14.43;;;12.90;;
42194;SDS011;27863;49.440;11.102;2023-02-11T08:33:34;13.93;;;12.63;;
42194;SDS011;27863;49.440;11.102;2023-02-11T08:36:37;13.33;;;11.93;;
42194;SDS011;27863;49.440;11.102;2023-02-11T08:39:38;14.10;;;12.70;;
42194;SDS011;27863;49.440;11.102;2023-02-11T08:42:38;13.83;;;12.23;;
42194;SDS011;27863;49.440;11.102;2023-02-11T08:45:39;12.90;;;11.67;;
42194;SDS011;27863;49.440;11.102;2023-02-11T08:48:39;12.60;;;11.30;;
42194;SDS011;27863;49.440;11.102;2023-02-11T08:51:42;14.13;;;12.63;;
42194;SDS011;27863;49.440;11.102;2023-02-11T08:54:43;13.00;;;11.27;;
42194;SDS011;27863;49.440;11.102;2023-02-11T08:57:45;12.60;;;10.90;;
42194;SDS011;27863;49.440;11.102;2023-02-11T09:00:46;16.20;;;12.23;;
42194;SDS011;27863;49.440;11.102;2023-02-11T09:03:47;14.67;;;11.70;;
42194;SDS011;27863;49.440;11.102;2023-02-11T09:06:48;12.93;;;11.63;;
42194;SDS011;27863;49.440;11.102;2023-02-11T09:09:50;12.90;;;11.33;;
42194;SDS011;27863;49.440;11.102;2023-02-11T09:12:51;12.77;;;11.57;;
42194;SDS011;27863;49.440;11.102;2023-02-11T09:15:52;13.20;;;11.73;;
42194;SDS011;27863;49.440;11.102;2023-02-11T09:18:54;14.83;;;13.33;;
42194;SDS011;27863;49.440;11.102;2023-02-11T09:21:56;12.87;;;11.53;;
42194;SDS011;27863;49.440;11.102;2023-02-11T09:24:58;12.80;;;11.60;;
42194;SDS011;27863;49.440;11.102;2023-02-11T09:27:59;13.53;;;11.60;;
42194;SDS011;27863;49.440;11.102;2023-02-11T09:31:06;16.43;;;10.93;;
42194;SDS011;27863;49.440;11.102;2023-02-11T09:34:08;14.70;;;11.17;;
42194;SDS011;27863;49.440;11.102;2023-02-11T09:37:10;11.97;;;10.73;;
42194;SDS011;27863;49.440;11.102;2023-02-11T09:40:11;11.80;;;10.60;;
42194;SDS011;27863;49.440;11.102;2023-02-11T09:43:18;18.57;;;12.23;;
42194;SDS011;27863;49.440;11.102;2023-02-11T09:46:23;13.37;;;11.37;;
42194;SDS011;27863;49.440;11.102;2023-02-11T09:49:44;14.83;;;13.33;;
42194;SDS011;27863;49.440;11.102;2023-02-11T09:52:53;17.43;;;10.97;;
42194;SDS011;27863;49.440;11.102;2023-02-11T09:56:09;10.83;;;9.83;;
42194;SDS011;27863;49.440;11.102;2023-02-11T09:59:14;11.00;;;9.90;;
42194;SDS011;27863;49.440;11.102;2023-02-11T10:02:40;13.30;;;11.40;;
42194;SDS011;27863;49.440;11.102;2023-02-11T10:15:30;11.90;;;10.70;;
42194;SDS011;27863;49.440;11.102;2023-02-11T10:21:55;12.67;;;11.43;;
42194;SDS011;27863;49.440;11.102;2023-02-11T10:24:59;12.33;;;10.73;;
42194;SDS011;27863;49.440;11.102;2023-02-11T10:28:00;12.27;;;11.03;;
42194;SDS011;27863;49.440;11.102;2023-02-11T10:31:09;11.37;;;10.27;;
42194;SDS011;27863;49.440;11.102;2023-02-11T10:34:11;12.40;;;11.10;;
42194;SDS011;27863;49.440;11.102;2023-02-11T10:37:13;17.03;;;11.27;;
42194;SDS011;27863;49.440;11.102;2023-02-11T10:40:18;11.77;;;10.63;;
42194;SDS011;27863;49.440;11.102;2023-02-11T10:43:22;14.17;;;11.13;;
42194;SDS011;27863;49.440;11.102;2023-02-11T10:46:25;16.07;;;11.50;;
42194;SDS011;27863;49.440;11.102;2023-02-11T10:49:43;11.60;;;10.50;;
42194;SDS011;27863;49.440;11.102;2023-02-11T10:52:45;12.53;;;10.83;;
42194;SDS011;27863;49.440;11.102;2023-02-11T10:55:52;20.93;;;11.60;;
42194;SDS011;27863;49.440;11.102;2023-02-11T10:58:58;12.40;;;11.23;;
42194;SDS011;27863;49.440;11.102;2023-02-11T11:02:01;11.80;;;10.40;;
42194;SDS011;27863;49.440;11.102;2023-02-11T11:05:06;15.77;;;10.70;;
42194;SDS011;27863;49.440;11.102;2023-02-11T11:08:15;13.00;;;11.70;;
42194;SDS011;27863;49.440;11.102;2023-02-11T11:11:21;12.93;;;11.60;;
42194;SDS011;27863;49.440;11.102;2023-02-11T11:14:23;15.00;;;11.77;;
42194;SDS011;27863;49.440;11.102;2023-02-11T11:17:28;37.23;;;18.77;;
42194;SDS011;27863;49.440;11.102;2023-02-11T11:20:29;20.67;;;13.83;;
42194;SDS011;27863;49.440;11.102;2023-02-11T11:23:34;18.07;;;14.03;;
42194;SDS011;27863;49.440;11.102;2023-02-11T11:29:48;13.70;;;12.33;;
42194;SDS011;27863;49.440;11.102;2023-02-11T11:32:49;17.10;;;12.67;;
42194;SDS011;27863;49.440;11.102;2023-02-11T11:42:28;15.07;;;13.23;;
42194;SDS011;27863;49.440;11.102;2023-02-11T11:45:30;18.57;;;13.90;;
42194;SDS011;27863;49.440;11.102;2023-02-11T11:48:38;15.33;;;13.67;;
42194;SDS011;27863;49.440;11.102;2023-02-11T11:51:41;20.00;;;13.47;;
42194;SDS011;27863;49.440;11.102;2023-02-11T11:54:50;13.73;;;12.43;;
42194;SDS011;27863;49.440;11.102;2023-02-11T11:57:55;15.27;;;13.07;;
42194;SDS011;27863;49.440;11.102;2023-02-11T12:08:02;15.77;;;13.17;;
42194;SDS011;27863;49.440;11.102;2023-02-11T12:11:25;15.17;;;13.67;;
42194;SDS011;27863;49.440;11.102;2023-02-11T12:14:48;21.40;;;13.90;;
42194;SDS011;27863;49.440;11.102;2023-02-11T12:18:18;16.50;;;14.33;;
42194;SDS011;27863;49.440;11.102;2023-02-11T12:24:57;14.77;;;13.27;;
42194;SDS011;27863;49.440;11.102;2023-02-11T12:38:23;16.93;;;12.93;;
42194;SDS011;27863;49.440;11.102;2023-02-11T12:54:55;16.40;;;12.20;;
42194;SDS011;27863;49.440;11.102;2023-02-11T12:57:58;16.03;;;13.20;;
42194;SDS011;27863;49.440;11.102;2023-02-11T13:01:11;15.87;;;13.10;;
42194;SDS011;27863;49.440;11.102;2023-02-11T13:04:24;14.70;;;13.20;;
42194;SDS011;27863;49.440;11.102;2023-02-11T13:07:33;17.07;;;12.87;;
42194;SDS011;27863;49.440;11.102;2023-02-11T13:10:37;17.37;;;14.43;;
42194;SDS011;27863;49.440;11.102;2023-02-11T13:13:48;21.17;;;14.03;;
42194;SDS011;27863;49.440;11.102;2023-02-11T13:16:54;13.63;;;12.33;;
42194;SDS011;27863;49.440;11.102;2023-02-11T13:19:58;17.00;;;11.97;;
42194;SDS011;27863;49.440;11.102;2023-02-11T13:23:25;13.93;;;11.53;;
42194;SDS011;27863;49.440;11.102;2023-02-11T13:26:28;14.23;;;12.83;;
42194;SDS011;27863;49.440;11.102;2023-02-11T13:36:16;17.07;;;12.97;;
42194;SDS011;27863;49.440;11.102;2023-02-11T13:39:19;14.40;;;12.67;;
42194;SDS011;27863;49.440;11.102;2023-02-11T13:42:20;13.97;;;12.70;;
42194;SDS011;27863;49.440;11.102;2023-02-11T13:45:33;15.30;;;12.30;;
42194;SDS011;27863;49.440;11.102;2023-02-11T13:48:49;15.70;;;14.17;;
42194;SDS011;27863;49.440;11.102;2023-02-11T13:51:52;15.30;;;13.70;;
42194;SDS011;27863;49.440;11.102;2023-02-11T13:54:54;15.20;;;13.67;;
42194;SDS011;27863;49.440;11.102;2023-02-11T14:01:07;14.73;;;13.27;;
42194;SDS011;27863;49.440;11.102;2023-02-11T14:04:21;14.17;;;11.73;;
42194;SDS011;27863;49.440;11.102;2023-02-11T14:08:03;12.73;;;11.43;;
42194;SDS011;27863;49.440;11.102;2023-02-11T14:18:56;15.60;;;11.57;;
42194;SDS011;27863;49.440;11.102;2023-02-11T14:22:02;13.30;;;11.67;;
42194;SDS011;27863;49.440;11.102;2023-02-11T14:25:04;15.63;;;11.33;;
42194;SDS011;27863;49.440;11.102;2023-02-11T14:28:21;14.47;;;12.10;;
42194;SDS011;27863;49.440;11.102;2023-02-11T14:31:24;13.03;;;11.83;;
42194;SDS011;27863;49.440;11.102;2023-02-11T14:44:28;14.93;;;13.43;;
42194;SDS011;27863;49.440;11.102;2023-02-11T14:47:35;18.57;;;12.30;;
42194;SDS011;27863;49.440;11.102;2023-02-11T14:50:44;12.93;;;11.53;;
42194;SDS011;27863;49.440;11.102;2023-02-11T14:53:48;13.60;;;12.33;;
42194;SDS011;27863;49.440;11.102;2023-02-11T15:00:24;18.83;;;12.77;;
42194;SDS011;27863;49.440;11.102;2023-02-11T15:06:39;17.73;;;11.93;;
42194;SDS011;27863;49.440;11.102;2023-02-11T15:09:41;16.03;;;12.33;;
42194;SDS011;27863;49.440;11.102;2023-02-11T15:12:45;15.63;;;12.70;;
42194;SDS011;27863;49.440;11.102;2023-02-11T15:15:49;15.73;;;12.67;;
42194;SDS011;27863;49.440;11.102;2023-02-11T15:18:55;14.97;;;13.37;;
42194;SDS011;27863;49.440;11.102;2023-02-11T15:21:57;14.93;;;13.43;;
42194;SDS011;27863;49.440;11.102;2023-02-11T15:24:59;15.70;;;13.43;;
42194;SDS011;27863;49.440;11.102;2023-02-11T15:28:09;22.27;;;15.37;;
42194;SDS011;27863;49.440;11.102;2023-02-11T15:31:24;15.50;;;13.33;;
42194;SDS011;27863;49.440;11.102;2023-02-11T15:34:25;16.23;;;14.53;;
42194;SDS011;27863;49.440;11.102;2023-02-11T15:37:27;18.00;;;15.17;;
42194;SDS011;27863;49.440;11.102;2023-02-11T15:40:30;15.93;;;13.77;;
42194;SDS011;27863;49.440;11.102;2023-02-11T15:43:45;16.57;;;13.43;;
42194;SDS011;27863;49.440;11.102;2023-02-11T15:46:46;15.77;;;13.90;;
42194;SDS011;27863;49.440;11.102;2023-02-11T15:49:47;15.60;;;13.93;;
42194;SDS011;27863;49.440;11.102;2023-02-11T15:52:48;13.23;;;11.93;;
42194;SDS011;27863;49.440;11.102;2023-02-11T15:55:50;15.43;;;13.90;;
42194;SDS011;27863;49.440;11.102;2023-02-11T15:58:53;17.63;;;13.73;;
42194;SDS011;27863;49.440;11.102;2023-02-11T16:01:56;15.03;;;13.40;;
42194;SDS011;27863;49.440;11.102;2023-02-11T16:05:02;15.37;;;13.77;;
42194;SDS011;27863;49.440;11.102;2023-02-11T16:08:19;15.03;;;13.47;;
42194;SDS011;27863;49.440;11.102;2023-02-11T16:11:32;17.73;;;15.73;;
42194;SDS011;27863;49.440;11.102;2023-02-11T16:14:34;15.80;;;13.87;;
42194;SDS011;27863;49.440;11.102;2023-02-11T16:17:38;15.73;;;14.13;;
42194;SDS011;27863;49.440;11.102;2023-02-11T16:20:39;16.67;;;15.07;;
42194;SDS011;27863;49.440;11.102;2023-02-11T16:23:39;19.17;;;14.07;;
42194;SDS011;27863;49.440;11.102;2023-02-11T16:26:46;20.83;;;13.67;;
42194;SDS011;27863;49.440;11.102;2023-02-11T16:29:48;20.50;;;15.53;;
42194;SDS011;27863;49.440;11.102;2023-02-11T16:32:51;17.03;;;14.97;;
42194;SDS011;27863;49.440;11.102;2023-02-11T16:35:52;17.23;;;15.00;;
42194;SDS011;27863;49.440;11.102;2023-02-11T16:38:53;22.67;;;15.77;;
42194;SDS011;27863;49.440;11.102;2023-02-11T16:41:53;18.13;;;16.13;;
42194;SDS011;27863;49.440;11.102;2023-02-11T16:44:55;19.10;;;14.20;;
42194;SDS011;27863;49.440;11.102;2023-02-11T16:47:55;19.47;;;15.13;;
42194;SDS011;27863;49.440;11.102;2023-02-11T16:50:56;23.23;;;16.77;;
42194;SDS011;27863;49.440;11.102;2023-02-11T16:53:57;17.13;;;15.33;;
42194;SDS011;27863;49.440;11.102;2023-02-11T16:56:57;17.70;;;15.87;;
42194;SDS011;27863;49.440;11.102;2023-02-11T16:59:59;18.30;;;15.63;;
42194;SDS011;27863;49.440;11.102;2023-02-11T17:03:00;17.30;;;14.57;;
42194;SDS011;27863;49.440;11.102;2023-02-11T17:06:00;17.30;;;15.50;;
42194;SDS011;27863;49.440;11.102;2023-02-11T17:09:03;21.43;;;15.70;;
42194;SDS011;27863;49.440;11.102;2023-02-11T17:12:05;51.53;;;28.80;;
42194;SDS011;27863;49.440;11.102;2023-02-11T17:15:06;27.03;;;17.87;;
42194;SDS011;27863;49.440;11.102;2023-02-11T17:18:07;20.70;;;16.10;;
42194;SDS011;27863;49.440;11.102;2023-02-11T17:21:10;21.93;;;17.60;;
42194;SDS011;27863;49.440;11.102;2023-02-11T17:24:11;22.10;;;16.00;;
42194;SDS011;27863;49.440;11.102;2023-02-11T17:27:13;21.83;;;16.60;;
42194;SDS011;27863;49.440;11.102;2023-02-11T17:30:14;21.17;;;16.00;;
42194;SDS011;27863;49.440;11.102;2023-02-11T17:33:15;17.33;;;15.57;;
42194;SDS011;27863;49.440;11.102;2023-02-11T17:36:15;17.47;;;15.77;;
42194;SDS011;27863;49.440;11.102;2023-02-11T17:39:16;21.03;;;16.10;;
42194;SDS011;27863;49.440;11.102;2023-02-11T17:42:18;19.43;;;17.17;;
42194;SDS011;27863;49.440;11.102;2023-02-11T17:45:18;19.07;;;17.10;;
42194;SDS011;27863;49.440;11.102;2023-02-11T17:48:19;19.90;;;17.90;;
42194;SDS011;27863;49.440;11.102;2023-02-11T17:51:31;29.97;;;21.13;;
42194;SDS011;27863;49.440;11.102;2023-02-11T17:54:33;30.40;;;20.43;;
42194;SDS011;27863;49.440;11.102;2023-02-11T17:57:33;22.47;;;19.30;;
42194;SDS011;27863;49.440;11.102;2023-02-11T18:00:34;30.93;;;20.70;;
42194;SDS011;27863;49.440;11.102;2023-02-11T18:03:35;27.93;;;18.40;;
42194;SDS011;27863;49.440;11.102;2023-02-11T18:06:36;30.10;;;19.83;;
42194;SDS011;27863;49.440;11.102;2023-02-11T18:09:37;23.63;;;18.80;;
42194;SDS011;27863;49.440;11.102;2023-02-11T18:12:38;23.53;;;20.03;;
42194;SDS011;27863;49.440;11.102;2023-02-11T18:15:39;26.37;;;21.57;;
42194;SDS011;27863;49.440;11.102;2023-02-11T18:18:40;23.93;;;19.53;;
42194;SDS011;27863;49.440;11.102;2023-02-11T18:21:41;19.20;;;17.20;;
42194;SDS011;27863;49.440;11.102;2023-02-11T18:24:41;23.80;;;18.40;;
42194;SDS011;27863;49.440;11.102;2023-02-11T18:27:42;18.80;;;16.93;;
42194;SDS011;27863;49.440;11.102;2023-02-11T18:30:43;20.87;;;17.80;;
42194;SDS011;27863;49.440;11.102;2023-02-11T18:33:44;19.23;;;16.83;;
42194;SDS011;27863;49.440;11.102;2023-02-11T18:36:45;20.10;;;18.20;;
42194;SDS011;27863;49.440;11.102;2023-02-11T18:39:46;22.30;;;17.97;;
42194;SDS011;27863;49.440;11.102;2023-02-11T18:42:47;32.80;;;19.47;;
42194;SDS011;27863;49.440;11.102;2023-02-11T18:45:48;20.37;;;18.10;;
42194;SDS011;27863;49.440;11.102;2023-02-11T18:48:49;19.30;;;17.30;;
42194;SDS011;27863;49.440;11.102;2023-02-11T18:51:51;22.03;;;19.03;;
42194;SDS011;27863;49.440;11.102;2023-02-11T18:54:52;21.90;;;18.53;;
42194;SDS011;27863;49.440;11.102;2023-02-11T18:57:52;21.10;;;18.90;;
42194;SDS011;27863;49.440;11.102;2023-02-11T19:00:53;23.97;;;18.83;;
42194;SDS011;27863;49.440;11.102;2023-02-11T19:03:54;20.43;;;17.57;;
42194;SDS011;27863;49.440;11.102;2023-02-11T19:06:56;21.10;;;18.43;;
42194;SDS011;27863;49.440;11.102;2023-02-11T19:10:02;21.13;;;18.93;;
42194;SDS011;27863;49.440;11.102;2023-02-11T19:13:03;25.93;;;18.37;;
42194;SDS011;27863;49.440;11.102;2023-02-11T19:16:07;25.90;;;19.77;;
42194;SDS011;27863;49.440;11.102;2023-02-11T19:19:08;24.50;;;20.40;;
42194;SDS011;27863;49.440;11.102;2023-02-11T19:22:08;22.03;;;19.30;;
42194;SDS011;27863;49.440;11.102;2023-02-11T19:25:09;22.00;;;19.70;;
42194;SDS011;27863;49.440;11.102;2023-02-11T19:28:11;22.57;;;18.87;;
42194;SDS011;27863;49.440;11.102;2023-02-11T19:31:12;24.77;;;20.67;;
42194;SDS011;27863;49.440;11.102;2023-02-11T19:34:13;21.80;;;19.00;;
42194;SDS011;27863;49.440;11.102;2023-02-11T19:37:15;20.40;;;18.30;;
42194;SDS011;27863;49.440;11.102;2023-02-11T19:40:15;22.10;;;17.70;;
42194;SDS011;27863;49.440;11.102;2023-02-11T19:43:16;22.53;;;19.00;;
42194;SDS011;27863;49.440;11.102;2023-02-11T19:46:18;21.93;;;19.63;;